logo
App data

Not Dying Today

Not dying today is a 2D side-scrolling action game. In 2030, the world has been taken over by zombies. With fire and blade, bullets and guns, you, captain Aiden, will do anything to protect the last human kind, anything, even turn into a zombie, using zombie power to kill zombies.
Store | Hub | SteamDB
Developer: 9TH.ART Publisher: Forever Entertainment S. A.
Genre: Action, Adventure, Casual, Indie
Languages: English
Tags: Action (39), Indie (25), Violent (25), Gore (25), Casual (23), Adventure (22), Beat 'em up (14), Local Co-Op (8), Zombies (5)
Category: Single-player, Local Multi-Player, Local Co-op, Shared/Split Screen, Steam Achievements, Full controller support, Steam Trading Cards, Steam Cloud
Release date: Jan 13, 2017
Price: $9.99
Score rank: 44% Userscore: 77% Old userscore: 80%
Owners: 0 .. 20,000
Followers: 616
Peak concurrent players yesterday: 3
YouTube stats: 2 views and 0 comments for videos uploaded last week, 3 new videos uploaded yesterday.
Playtime in the last 2 weeks: 02:07 (average) 02:07 (median)
Playtime total: 04:01 (average) 03:19 (median)

Steam Spy is still in beta, so expect major bugs.

Owners data:

Access restricted.

This feature is only available to users with special access rights. Sorry.

If you want to proceed, you need to register or log in first and then back Steam Spy on Patreon. Look for Indie or Pro pledge.

Don't forget to use the same email as on Steam Spy!

Audience in 2 weeks:

Access restricted.

This feature is only available to users with special access rights. Sorry.

If you want to proceed, you need to register or log in first and then back Steam Spy on Patreon. Look for Indie or Pro pledge.

Don't forget to use the same email as on Steam Spy!

Peak daily concurrent players:

CCU data courtesy of SteamDB. Used with permission.

Hourly concurrent players:

Daily Twitch stats:

Hourly Twitch stats:

YouTube:

The views data is based on top 50 videos uploaded last week. Actual number of views might be more than the number shown.

The displayed number of videos uploaded yesterday is limited to 50, so if there were more videos uploaded, the number will still show 50.

If the game has commonly used word as its name (like "FEAR" or "Volume") its number of Youtube views might be wrong.

Games similar to this one:

# Game Release date
Price
Score rank
(Userscore / Metascore)
Owners
Players
Playtime (Median)
1 Star Trek: Judgment Rites May 8, 2015 $9.99N/A (N/A)0 .. 20,0000%00:00 (00:00)
2 Aaero Apr 11, 2017 $14.9990% (94%)0 .. 20,0000%00:00 (00:00)
3 Star Trek : 25th Anniversary May 7, 2015 $9.9990% (94%)0 .. 20,0000%00:00 (00:00)
4 Adventure in the Tower of Flight Dec 23, 2015 $4.9987% (93%)0 .. 20,0000%00:00 (00:00)
5 Knightmare Tower Jun 16, 2014 $3.9983% (92%)0 .. 20,0000%00:00 (00:00)
6 Super Kaiju Dec 6, 2016 $19.99N/A (N/A)0 .. 20,0000%00:00 (00:00)
7 Spark the Electric Jester Apr 10, 2017 $14.9979% (91%)0 .. 20,0000%00:00 (00:00)
8 Fractured Soul Feb 5, 2015 $9.99N/A (N/A)0 .. 20,0000%00:00 (00:00)
9 Hyphen Feb 12, 2015 $3.99N/A (N/A)0 .. 20,0000%00:00 (00:00)
10 Hero of Many Sep 15, 2014 $6.9976% (90%)20,000 .. 50,0000%00:00 (00:00)
11 THE WALL 墙 Jun 8, 2017 $1.9973% (89%)0 .. 20,0000%00:00 (00:00)
12 Neighborhorde Jun 5, 2017 $4.99N/A (N/A)0 .. 20,0000%00:00 (00:00)
13 Asura: Vengeance Expansion Apr 13, 2017 $9.9965% (86%)0 .. 20,0000%00:00 (00:00)
14 Disney's Chicken Little Oct 20, 2005 $9.9965% (86%)0 .. 20,0000%00:00 (00:00)
15 N2O: Nitrous Oxide Jun 29, 2015 $4.99N/A (N/A)0 .. 20,0000%00:00 (00:00)
16 Knight Squad Nov 16, 2015 $14.9965% (86%)50,000 .. 100,0001.01%02:08 (00:42)
17 Azure Striker Gunvolt Aug 28, 2015 $14.9962% (85%)20,000 .. 50,0000%00:00 (00:00)
18 Vintage Year Jan 2, 2015 $2.9962% (85%)20,000 .. 50,0000%00:00 (00:00)
19 Nongünz May 19, 2017 $6.9962% (85%)100,000 .. 200,0000.72%01:49 (00:36)
20 Dyna Bomb May 13, 2016 $4.99N/A (N/A)0 .. 20,0000%00:00 (00:00)
21 Rosenkreuzstilette Feb 2, 2017 $9.9959% (84%)0 .. 20,0000%00:00 (00:00)
22 Isbarah Feb 25, 2015 $13.99N/A (N/A)0 .. 20,0009.09%06:54 (02:18)
23 Fighties Jul 13, 2015 $4.9957% (83%)0 .. 20,0000%00:00 (00:00)
24 After The End: The Harvest Jun 2, 2017 $4.9955% (82%)20,000 .. 50,0000%00:00 (00:00)
25 LocoCycle Feb 14, 2014 $9.9950% (80%)0 .. 20,0000%00:00 (00:00)
26 Airport Madness: World Edition May 28, 2015 $9.9950% (80%)20,000 .. 50,0000%00:00 (00:00)
27 Blue Effect VR Sep 29, 2016 $14.9948% (79%)0 .. 20,0000%00:00 (00:00)
28 Age of Barbarian Extended Cut Jun 3, 2016 $12.9946% (78%)0 .. 20,0000%00:00 (00:00)
29 IrreVRsible May 24, 2016 $1.99N/A (N/A)0 .. 20,0000%00:00 (00:00)
30 Starchaser: Priestess of the Night Sky Jul 24, 2015 $9.99N/A (N/A)0 .. 20,0000%00:00 (00:00)
31 Left Alone Apr 28, 2016 $6.9942% (76%)0 .. 20,0000%00:00 (00:00)
32 Zero Reflex : Black Eye Edition Nov 5, 2015 $3.9940% (75%)20,000 .. 50,0000.94%00:03 (00:01)
33 ABRACA - Imagic Games Mar 31, 2016 $14.99N/A (N/A)0 .. 20,0000%00:00 (00:00)
34 Aeon May 22, 2017 $4.9937% (73%)0 .. 20,0000%00:00 (00:00)
35 BoxesWithGuns Dec 14, 2014 $1.9935% (72%)20,000 .. 50,0000%00:00 (00:00)
36 The Girl and the Robot Aug 17, 2016 $9.99N/A (N/A)0 .. 20,0000%00:00 (00:00)
37 Tank Brawl Apr 20, 2016 $4.99N/A (N/A)0 .. 20,0000%00:00 (00:00)
38 Toxic Bunny HD Jul 18, 2014 $5.99N/A (N/A)0 .. 20,0000%00:00 (00:00)
39 Phantaruk Aug 16, 2016 $4.9930% (69%/53%)20,000 .. 50,0000%00:00 (00:00)
40 Planet of Mubu Apr 1, 2017 $5.99N/A (N/A)20,000 .. 50,0000%00:00 (00:00)
41 Spud's Quest Jul 31, 2014 $7.99N/A (N/A)0 .. 20,0000%00:00 (00:00)
42 Pixel-Warfare: Pro Sep 20, 2016 $0.9929% (68%)20,000 .. 50,0000%00:00 (00:00)
43 Demon's Crystals Apr 21, 2016 $4.99N/A (N/A)0 .. 20,0007.69%00:20 (00:06)
44 Demon Peak Jul 7, 2017 $4.9926% (66%)0 .. 20,0000%00:00 (00:00)
45 Dystopy Feb 28, 2017 FreeN/A (N/A)0 .. 20,00033.33%01:56 (00:58)
46 BIOS Dec 13, 2016 $14.9926% (66%)0 .. 20,0000%00:00 (00:00)
47 Assault Suit Leynos Aug 30, 2016 $19.9926% (66%)0 .. 20,0000%00:00 (00:00)
48 Bombshell Jan 29, 2016 $34.9921% (62%)0 .. 20,0000%00:00 (00:00)
49 Alpha Zylon Dec 19, 2007 $4.9921% (62%)20,000 .. 50,0000%00:00 (00:00)
50 Disney Alice in Wonderland Mar 2, 2010 $19.9920% (61%/63%)0 .. 20,0000%00:00 (00:00)
51 Fowl Space Mar 21, 2012 $4.9919% (60%)20,000 .. 50,0000%00:00 (00:00)
52 Hybrid Wars Sep 29, 2016 $17.9919% (60%/54%)0 .. 20,0000%00:00 (00:00)
53 Shadowcrypt Jul 7, 2014 $4.9917% (58%)0 .. 20,0000%00:00 (00:00)
54 The Curse of Nordic Cove Apr 23, 2015 $0.99N/A (N/A)0 .. 20,0000%00:00 (00:00)
55 Disney Tangled Nov 19, 2010 $19.99N/A (N/A)0 .. 20,0000%00:00 (00:00)
56 Disney•Pixar Cars 2: The Video Game Jun 21, 2011 $19.9912% (52%)0 .. 20,0005.26%00:01 (00:00)
57 Scooby Doo! & Looney Tunes Cartoon Universe: Adventure Jul 16, 2014 $19.99N/A (N/A)0 .. 20,0000%00:00 (00:00)
58 Plancon: Space Conflict Aug 8, 2016 $6.9910% (48%)20,000 .. 50,0001.1%00:01 (00:00)
59 #KILLALLZOMBIES Aug 10, 2016 $4.99N/A (N/A)20,000 .. 50,0000.59%05:30 (01:50)
60 Infinium Strike Jul 14, 2016 $9.999% (47%)0 .. 20,0000%00:00 (00:00)
61 Blasting Agent: Ultimate Edition Aug 17, 2016 $2.99N/A (N/A)0 .. 20,0000%00:00 (00:00)
62 Lost Sea Jul 5, 2016 $14.999% (46%)0 .. 20,00012.5%00:01 (00:00)
63 Red Goddess: Inner World Sep 1, 2015 $9.995% (37%/53%)0 .. 20,0000%00:00 (00:00)
64 Kick-Ass 2 Aug 15, 2014 $19.995% (36%)0 .. 20,0000%00:00 (00:00)
65 Disney Fairies: Tinker Bell's Adventure Oct 6, 2014 $19.99N/A (N/A)0 .. 20,0000%00:00 (00:00)
66 Masterspace Jun 15, 2015 $7.993% (27%)0 .. 20,0000%00:00 (00:00)
67 Monster Challenge Circus May 15, 2014 $4.99N/A (N/A)0 .. 20,0000%00:00 (00:00)
68 Deer Hunt Legends Jan 7, 2013 $4.99N/A (N/A)0 .. 20,0001.75%10:53 (03:37)

Owners of this game also own:

Access restricted.

This feature is only available to users with special access rights. Sorry.

If you want to proceed, you need to register or log in first and then back Steam Spy on Patreon. Look for Indie or Pro pledge.

Don't forget to use the same email as on Steam Spy!

Playtime distribution:

Access restricted.

This feature is only available to users with special access rights. Sorry.

If you want to proceed, you need to register or log in first and then back Steam Spy on Patreon. Look for Indie or Pro pledge.

Don't forget to use the same email as on Steam Spy!

Playtime (2 weeks):

Access restricted.

This feature is only available to users with special access rights. Sorry.

If you want to proceed, you need to register or log in first and then back Steam Spy on Patreon. Look for Indie or Pro pledge.

Don't forget to use the same email as on Steam Spy!

User reviews:

Login required.

Please register or log in to see this information.